createdAt,value
2023-04-19T00:00:12.367Z,4.60
2023-04-19T00:03:16.022Z,3.92
2023-04-19T00:06:21.176Z,4.75
2023-04-19T00:09:24.151Z,4.35
2023-04-19T00:12:27.193Z,4.07
2023-04-19T00:15:30.251Z,4.07
2023-04-19T00:18:33.808Z,4.28
2023-04-19T00:21:37.225Z,4.40
2023-04-19T00:24:40.405Z,3.97
2023-04-19T00:27:43.392Z,3.23
2023-04-19T00:30:46.661Z,4.27
2023-04-19T00:33:49.895Z,4.25
2023-04-19T00:36:53.132Z,4.40
2023-04-19T00:39:56.548Z,3.92
2023-04-19T00:42:59.919Z,5.37
2023-04-19T00:46:03.473Z,4.73
2023-04-19T00:49:07.047Z,4.45
2023-04-19T00:52:10.825Z,5.22
2023-04-19T00:55:14.823Z,4.90
2023-04-19T00:58:19.071Z,5.07
2023-04-19T01:01:22.725Z,5.00
2023-04-19T01:04:26.655Z,4.32
2023-04-19T01:07:29.923Z,5.18
2023-04-19T01:10:32.971Z,5.63
2023-04-19T01:13:36.135Z,5.30
2023-04-19T01:16:39.423Z,6.10
2023-04-19T01:19:42.876Z,4.75
2023-04-19T01:22:46.397Z,5.47
2023-04-19T01:25:50.395Z,5.90
2023-04-19T01:28:53.555Z,6.15
2023-04-19T01:31:56.941Z,6.07
2023-04-19T01:35:02.871Z,4.82
2023-04-19T01:38:06.668Z,5.70
2023-04-19T01:41:10.216Z,5.60
2023-04-19T01:44:13.728Z,5.53
2023-04-19T01:47:17.026Z,5.50
2023-04-19T01:50:20.351Z,5.00
2023-04-19T01:53:23.757Z,4.60
2023-04-19T01:56:26.765Z,6.03
2023-04-19T01:59:30.138Z,5.73
2023-04-19T02:02:33.220Z,5.67
2023-04-19T02:05:39.712Z,4.72
2023-04-19T02:08:43.430Z,5.53
2023-04-19T02:11:46.781Z,6.22
2023-04-19T02:14:50.043Z,6.07
2023-04-19T02:17:53.145Z,5.47
2023-04-19T02:20:56.861Z,5.25
2023-04-19T02:23:59.881Z,5.75
2023-04-19T02:27:03.233Z,5.10
2023-04-19T02:30:09.692Z,5.23
2023-04-19T02:33:13.024Z,5.97
2023-04-19T02:36:16.081Z,5.75
2023-04-19T02:39:19.056Z,4.75
2023-04-19T02:42:21.962Z,4.72
2023-04-19T02:45:25.415Z,5.33
2023-04-19T02:48:31.257Z,5.90
2023-04-19T02:51:34.396Z,5.68
2023-04-19T02:54:37.705Z,4.55
2023-04-19T02:57:41.372Z,5.50
2023-04-19T03:00:46.465Z,5.20
2023-04-19T03:03:52.645Z,5.50
2023-04-19T03:06:55.889Z,4.95
2023-04-19T03:09:59.721Z,4.55
2023-04-19T03:13:02.691Z,4.72
2023-04-19T03:16:07.586Z,4.85
2023-04-19T03:19:11.030Z,5.17
2023-04-19T03:22:21.578Z,5.00
2023-04-19T03:25:24.982Z,4.90
2023-04-19T03:28:36.271Z,4.90
2023-04-19T03:31:58.071Z,5.57
2023-04-19T03:35:01.430Z,5.23
2023-04-19T03:38:05.719Z,6.00
2023-04-19T03:41:19.131Z,4.68
2023-04-19T03:44:23.374Z,6.70
2023-04-19T03:47:26.563Z,5.53
2023-04-19T03:50:33.116Z,6.13
2023-04-19T03:53:37.036Z,5.43
2023-04-19T03:56:40.416Z,5.72
2023-04-19T03:59:44.304Z,4.97
2023-04-19T04:02:47.895Z,5.83
2023-04-19T04:05:50.936Z,5.83
2023-04-19T04:08:54.344Z,5.18
2023-04-19T04:11:57.881Z,5.80
2023-04-19T04:15:01.117Z,4.60
2023-04-19T04:18:08.495Z,5.00
2023-04-19T04:21:12.323Z,5.07
2023-04-19T04:24:20.389Z,4.70
2023-04-19T04:27:52.536Z,5.10
2023-04-19T04:31:00.478Z,4.90
2023-04-19T04:34:09.388Z,4.30
2023-04-19T04:37:18.117Z,4.73
2023-04-19T04:40:22.640Z,5.45
2023-04-19T04:43:29.348Z,5.40
2023-04-19T04:46:32.645Z,5.10
2023-04-19T04:49:36.583Z,5.03
2023-04-19T04:52:40.282Z,4.77
2023-04-19T04:55:47.862Z,5.22
2023-04-19T04:58:51.204Z,5.45
2023-04-19T05:02:03.266Z,4.88
2023-04-19T05:05:06.800Z,5.83
2023-04-19T05:08:09.788Z,5.43
2023-04-19T05:11:15.409Z,6.00
2023-04-19T05:14:19.773Z,6.10
2023-04-19T05:17:23.105Z,5.82
2023-04-19T05:20:26.592Z,5.18
2023-04-19T05:23:38.609Z,5.67
2023-04-19T05:26:42.221Z,5.05
2023-04-19T05:29:46.257Z,5.10
2023-04-19T05:32:49.461Z,4.63
2023-04-19T05:35:54.510Z,4.55
2023-04-19T05:38:58.027Z,4.20
2023-04-19T05:42:01.978Z,4.68
2023-04-19T05:45:07.488Z,4.28
2023-04-19T05:48:11.068Z,4.70
2023-04-19T05:51:38.976Z,4.30
2023-04-19T05:54:46.274Z,3.93
2023-04-19T05:57:49.692Z,4.28
2023-04-19T06:00:52.971Z,4.50
2023-04-19T06:03:58.326Z,4.40
2023-04-19T06:07:03.106Z,4.47
2023-04-19T06:10:08.277Z,4.20
2023-04-19T06:13:11.977Z,4.07
2023-04-19T06:16:15.423Z,4.70
2023-04-19T06:19:18.537Z,4.43
2023-04-19T06:22:22.716Z,3.90
2023-04-19T06:25:26.952Z,4.20
2023-04-19T06:28:29.861Z,4.65
2023-04-19T06:31:34.108Z,4.60
2023-04-19T06:34:37.337Z,4.25
2023-04-19T06:37:40.948Z,3.85
2023-04-19T06:40:44.278Z,5.77
2023-04-19T06:43:48.893Z,4.60
2023-04-19T06:46:52.486Z,4.45
2023-04-19T06:49:57.093Z,4.78
2023-04-19T06:53:01.183Z,4.35
2023-04-19T06:56:06.282Z,4.90
2023-04-19T06:59:09.856Z,4.53
2023-04-19T07:02:13.534Z,5.45
2023-04-19T07:05:17.590Z,5.45
2023-04-19T07:08:20.699Z,5.55
2023-04-19T07:11:25.167Z,5.50
2023-04-19T07:14:29.451Z,5.50
2023-04-19T07:17:39.826Z,5.53
2023-04-19T07:20:46.946Z,6.35
2023-04-19T07:23:50.376Z,6.00
2023-04-19T07:26:54.100Z,5.20
2023-04-19T07:29:57.449Z,5.75
2023-04-19T07:33:00.995Z,5.45
2023-04-19T07:36:04.288Z,5.15
2023-04-19T07:39:08.302Z,4.70
2023-04-19T07:42:12.040Z,5.57
2023-04-19T07:45:15.517Z,5.32
2023-04-19T07:48:19.233Z,5.60
2023-04-19T07:51:24.787Z,5.97
2023-04-19T07:54:28.330Z,5.47
2023-04-19T07:57:31.853Z,5.37
2023-04-19T08:00:39.637Z,5.53
2023-04-19T08:03:47.496Z,6.30
2023-04-19T08:06:53.295Z,5.95
2023-04-19T08:09:56.960Z,5.95
2023-04-19T08:13:05.373Z,6.27
2023-04-19T08:19:16.678Z,5.57
2023-04-19T08:22:21.822Z,5.25
2023-04-19T08:25:28.781Z,5.40
2023-04-19T08:28:32.120Z,5.20
2023-04-19T08:31:39.696Z,6.35
2023-04-19T08:34:43.984Z,6.30
2023-04-19T08:37:48.897Z,5.57
2023-04-19T08:40:53.302Z,6.50
2023-04-19T08:43:59.489Z,6.17
2023-04-19T08:47:03.170Z,5.43
2023-04-19T08:50:20.578Z,5.32
2023-04-19T08:53:36.071Z,5.65
2023-04-19T08:56:39.926Z,4.93
2023-04-19T08:59:45.855Z,5.40
2023-04-19T09:02:52.484Z,4.85
2023-04-19T09:05:57.261Z,5.60
2023-04-19T09:12:28.067Z,6.20
2023-04-19T09:15:39.630Z,6.27
2023-04-19T09:19:02.435Z,6.22
2023-04-19T09:22:23.980Z,6.30
2023-04-19T09:28:33.246Z,6.75
2023-04-19T09:31:50.551Z,7.33
2023-04-19T09:34:59.930Z,6.43
2023-04-19T09:38:06.855Z,6.70
2023-04-19T09:41:11.540Z,7.88
2023-04-19T09:47:26.857Z,5.93
2023-04-19T09:50:31.901Z,5.40
2023-04-19T09:53:36.951Z,6.82
2023-04-19T09:56:41.097Z,6.32
2023-04-19T09:59:44.910Z,5.55
2023-04-19T10:02:56.043Z,6.47
2023-04-19T10:06:04.360Z,6.40
2023-04-19T10:09:14.551Z,5.93
2023-04-19T10:12:38.984Z,6.32
2023-04-19T10:15:52.694Z,5.85
2023-04-19T10:19:02.885Z,6.50
2023-04-19T10:22:08.053Z,5.97
2023-04-19T10:25:13.925Z,6.07
2023-04-19T10:28:18.036Z,5.40
2023-04-19T10:31:23.773Z,6.28
2023-04-19T10:34:40.541Z,5.83
2023-04-19T10:38:03.630Z,5.20
2023-04-19T10:41:15.521Z,5.38
2023-04-19T10:44:19.869Z,7.00
2023-04-19T10:47:45.495Z,6.10
2023-04-19T10:54:33.527Z,5.63
2023-04-19T10:58:05.537Z,5.85
2023-04-19T11:01:45.779Z,6.25
2023-04-19T11:04:49.075Z,5.88
2023-04-19T11:07:52.197Z,5.60
2023-04-19T11:10:57.719Z,6.15
2023-04-19T11:14:03.092Z,6.80
2023-04-19T11:17:18.531Z,6.90
2023-04-19T11:20:24.600Z,6.45
2023-04-19T11:23:27.764Z,6.43
2023-04-19T11:26:31.502Z,7.57
2023-04-19T11:29:34.464Z,6.53
2023-04-19T11:32:37.775Z,7.13
2023-04-19T11:35:41.639Z,5.93
2023-04-19T11:38:48.790Z,6.57
2023-04-19T11:41:53.165Z,6.53
2023-04-19T11:44:58.495Z,7.30
2023-04-19T11:48:02.114Z,6.50
2023-04-19T11:51:08.637Z,6.80
2023-04-19T11:54:15.014Z,5.70
2023-04-19T11:57:28.885Z,5.43
2023-04-19T12:00:32.352Z,6.10
2023-04-19T12:03:58.987Z,5.47
2023-04-19T12:07:03.754Z,5.22
2023-04-19T12:10:11.818Z,6.30
2023-04-19T12:13:18.977Z,6.82
2023-04-19T12:16:29.095Z,5.97
2023-04-19T12:19:37.333Z,5.85
2023-04-19T12:22:40.786Z,6.57
2023-04-19T12:25:47.625Z,6.63
2023-04-19T12:28:50.664Z,5.75
2023-04-19T12:31:54.141Z,6.75
2023-04-19T12:34:57.603Z,6.38
2023-04-19T12:38:01.250Z,7.35
2023-04-19T12:41:04.804Z,7.50
2023-04-19T12:44:08.765Z,6.57
2023-04-19T12:47:12.063Z,6.53
2023-04-19T12:50:16.330Z,6.32
2023-04-19T12:53:19.454Z,6.80
2023-04-19T12:56:23.251Z,7.13
2023-04-19T12:59:28.175Z,6.43
2023-04-19T13:02:31.351Z,6.85
2023-04-19T13:05:34.729Z,6.30
2023-04-19T13:08:45.538Z,6.50
2023-04-19T13:11:51.239Z,6.87
2023-04-19T13:14:54.946Z,5.45
2023-04-19T13:17:58.232Z,6.07
2023-04-19T13:21:01.221Z,7.75
2023-04-19T13:24:04.356Z,6.93
2023-04-19T13:27:08.917Z,5.97
2023-04-19T13:30:13.112Z,6.18
2023-04-19T13:33:16.384Z,6.20
2023-04-19T13:36:20.132Z,6.32
2023-04-19T13:39:26.088Z,8.27
2023-04-19T13:42:29.788Z,6.63
2023-04-19T13:45:33.260Z,5.65
2023-04-19T13:48:36.242Z,5.85
2023-04-19T13:51:49.539Z,5.95
2023-04-19T13:54:53.362Z,8.80
2023-04-19T13:57:56.177Z,6.90
2023-04-19T14:00:59.529Z,6.28
2023-04-19T14:04:03.223Z,8.68
2023-04-19T14:07:07.366Z,6.45
2023-04-19T14:10:11.201Z,6.53
2023-04-19T14:13:15.386Z,7.53
2023-04-19T14:16:18.435Z,7.45
2023-04-19T14:19:22.013Z,5.63
2023-04-19T14:22:25.225Z,5.50
2023-04-19T14:25:28.352Z,5.32
2023-04-19T14:28:31.581Z,4.60
2023-04-19T14:31:34.903Z,4.90
2023-04-19T14:34:37.960Z,4.60
2023-04-19T14:37:41.017Z,4.47
2023-04-19T14:40:44.330Z,4.60
2023-04-19T14:43:47.786Z,4.27
2023-04-19T14:46:51.228Z,4.10
2023-04-19T14:49:54.291Z,3.70
2023-04-19T14:52:57.475Z,4.30
2023-04-19T14:56:03.940Z,3.72
2023-04-19T14:59:08.253Z,3.17
2023-04-19T15:02:13.630Z,3.78
2023-04-19T15:05:17.358Z,6.55
2023-04-19T15:08:30.033Z,7.50
2023-04-19T15:11:34.664Z,4.55
2023-04-19T15:14:38.853Z,4.37
2023-04-19T15:17:43.448Z,3.60
2023-04-19T15:20:46.598Z,8.45
2023-04-19T15:23:49.908Z,5.72
2023-04-19T15:26:52.992Z,3.67
2023-04-19T15:29:56.093Z,3.07
2023-04-19T15:32:59.637Z,3.50
2023-04-19T15:36:02.797Z,4.10
2023-04-19T15:39:06.051Z,3.05
2023-04-19T15:42:09.541Z,3.50
2023-04-19T15:45:12.840Z,2.23
2023-04-19T15:48:16.197Z,3.65
2023-04-19T15:51:19.052Z,2.60
2023-04-19T15:54:23.176Z,2.78
2023-04-19T15:57:26.591Z,2.50
2023-04-19T16:00:30.389Z,3.93
2023-04-19T16:03:34.158Z,3.10
2023-04-19T16:06:37.504Z,3.08
2023-04-19T16:09:40.851Z,2.63
2023-04-19T16:12:44.308Z,3.90
2023-04-19T16:15:47.607Z,2.87
2023-04-19T16:18:51.225Z,4.50
2023-04-19T16:21:54.463Z,3.72
2023-04-19T16:24:57.301Z,3.35
2023-04-19T16:28:01.008Z,2.72
2023-04-19T16:31:04.255Z,3.20
2023-04-19T16:34:08.276Z,2.50
2023-04-19T16:37:11.559Z,2.30
2023-04-19T16:40:15.163Z,2.33
2023-04-19T16:43:20.882Z,2.67
2023-04-19T16:46:23.977Z,2.70
2023-04-19T16:49:26.868Z,2.72
2023-04-19T16:52:32.822Z,4.68
2023-04-19T16:55:36.549Z,3.00
2023-04-19T16:58:40.274Z,4.60
2023-04-19T17:01:44.487Z,3.80
2023-04-19T17:04:48.087Z,3.17
2023-04-19T17:07:52.564Z,3.10
2023-04-19T17:10:56.291Z,3.28
2023-04-19T17:13:59.717Z,3.25
2023-04-19T17:17:03.015Z,2.73
2023-04-19T17:20:06.559Z,2.60
2023-04-19T17:23:09.566Z,3.50
2023-04-19T17:26:12.685Z,3.08
2023-04-19T17:29:16.086Z,3.58
2023-04-19T17:32:19.408Z,3.80
2023-04-19T17:35:22.896Z,4.10
2023-04-19T17:38:25.997Z,5.28
2023-04-19T17:41:29.125Z,4.95
2023-04-19T17:44:32.077Z,5.15
2023-04-19T17:47:35.488Z,4.10
2023-04-19T17:50:38.771Z,4.07
2023-04-19T17:53:42.566Z,3.88
2023-04-19T17:56:45.892Z,4.88
2023-04-19T17:59:48.871Z,5.20
2023-04-19T18:02:52.268Z,4.90
2023-04-19T18:05:55.457Z,3.30
2023-04-19T18:08:59.280Z,3.85
2023-04-19T18:12:02.978Z,2.67
2023-04-19T18:15:06.842Z,4.68
2023-04-19T18:18:09.958Z,3.80
2023-04-19T18:21:13.029Z,3.90
2023-04-19T18:24:16.444Z,3.65
2023-04-19T18:27:19.739Z,3.58
2023-04-19T18:30:22.819Z,3.40
2023-04-19T18:33:26.512Z,4.73
2023-04-19T18:36:29.886Z,3.80
2023-04-19T18:39:33.484Z,3.97
2023-04-19T18:42:36.810Z,3.75
2023-04-19T18:45:39.854Z,3.00
2023-04-19T18:48:42.852Z,4.20
2023-04-19T18:51:47.313Z,3.60
2023-04-19T18:54:50.747Z,3.67
2023-04-19T18:57:54.480Z,3.20
2023-04-19T19:00:58.691Z,3.73
2023-04-19T19:07:27.296Z,3.08
2023-04-19T19:10:54.216Z,3.22
2023-04-19T19:13:54.608Z,3.90
2023-04-19T19:16:58.948Z,3.90
2023-04-19T19:20:02.251Z,4.50
2023-04-19T19:23:06.144Z,3.53
2023-04-19T19:26:12.525Z,3.80
2023-04-19T19:29:17.843Z,3.33
2023-04-19T19:32:21.819Z,3.90
2023-04-19T19:35:25.264Z,4.23
2023-04-19T19:38:28.293Z,4.90
2023-04-19T19:42:03.390Z,4.32
2023-04-19T19:44:55.879Z,4.05
2023-04-19T19:48:00.165Z,4.70
2023-04-19T19:51:31.388Z,3.50
2023-04-19T19:54:27.684Z,4.05
2023-04-19T20:00:46.335Z,3.92
2023-04-19T20:03:52.051Z,4.23
2023-04-19T20:10:01.501Z,3.90
2023-04-19T20:13:06.410Z,4.38
2023-04-19T20:16:10.251Z,3.50
2023-04-19T20:19:14.023Z,4.07
2023-04-19T20:22:17.690Z,4.50
2023-04-19T20:25:21.043Z,4.18
2023-04-19T20:28:24.556Z,4.03
2023-04-19T20:31:28.097Z,4.00
2023-04-19T20:34:31.401Z,3.37
2023-04-19T20:37:37.743Z,3.73
2023-04-19T20:40:41.444Z,4.10
2023-04-19T20:43:44.819Z,4.07
2023-04-19T20:46:49.273Z,5.05
2023-04-19T20:49:53.066Z,4.40
2023-04-19T20:52:56.875Z,3.83
2023-04-19T20:56:01.381Z,4.50
2023-04-19T20:59:04.809Z,4.55
2023-04-19T21:02:08.549Z,3.72
2023-04-19T21:05:11.906Z,5.20
2023-04-19T21:08:16.227Z,4.50
2023-04-19T21:11:19.417Z,4.60
2023-04-19T21:14:22.766Z,4.07
2023-04-19T21:17:26.301Z,3.83
2023-04-19T21:20:29.649Z,4.37
2023-04-19T21:23:32.902Z,4.60
2023-04-19T21:26:36.388Z,4.32
2023-04-19T21:29:39.957Z,4.22
2023-04-19T21:32:42.987Z,4.43
2023-04-19T21:35:46.312Z,4.17
2023-04-19T21:38:49.416Z,4.30
2023-04-19T21:41:52.536Z,4.72
2023-04-19T21:44:55.769Z,4.05
2023-04-19T21:47:59.347Z,4.60
2023-04-19T21:51:02.663Z,3.93
2023-04-19T21:54:06.181Z,4.20
2023-04-19T21:57:09.172Z,3.78
2023-04-19T22:00:13.924Z,3.85
2023-04-19T22:03:17.502Z,3.42
2023-04-19T22:06:22.114Z,4.20
2023-04-19T22:09:28.759Z,4.00
2023-04-19T22:12:34.061Z,4.47
2023-04-19T22:15:38.405Z,4.10
2023-04-19T22:18:41.910Z,4.85
2023-04-19T22:21:47.073Z,3.73
2023-04-19T22:24:57.420Z,4.37
2023-04-19T22:28:00.870Z,4.03
2023-04-19T22:31:04.243Z,4.07
2023-04-19T22:34:07.279Z,3.60
2023-04-19T22:37:10.636Z,3.70
2023-04-19T22:40:13.971Z,4.27
2023-04-19T22:43:17.132Z,4.35
2023-04-19T22:46:20.427Z,4.35
2023-04-19T22:49:24.237Z,3.90
2023-04-19T22:52:27.944Z,4.43
2023-04-19T22:55:31.024Z,4.13
2023-04-19T22:58:34.259Z,4.25
2023-04-19T23:01:37.595Z,3.97
2023-04-19T23:04:41.121Z,4.10
2023-04-19T23:07:45.381Z,4.47
2023-04-19T23:10:51.155Z,4.60
2023-04-19T23:13:54.198Z,4.30
2023-04-19T23:16:57.722Z,4.57
2023-04-19T23:20:00.759Z,4.45
2023-04-19T23:23:05.328Z,4.03
2023-04-19T23:26:08.198Z,4.17
2023-04-19T23:29:11.177Z,3.58
2023-04-19T23:32:14.630Z,4.03
2023-04-19T23:35:18.188Z,4.45
2023-04-19T23:38:21.154Z,5.07
2023-04-19T23:41:24.246Z,4.73
2023-04-19T23:44:27.443Z,4.40
2023-04-19T23:47:30.775Z,3.95
2023-04-19T23:50:33.882Z,4.65
2023-04-19T23:53:38.732Z,4.43
2023-04-19T23:56:41.839Z,3.90
2023-04-19T23:59:45.081Z,4.72
